sensor_id;sensor_type;location;lat;lon;timestamp;pressure;altitude;pressure_sealevel;temperature;humidity
9521;BME280;4798;41.574;23.734;2023-09-19T00:00:57;95707.59;;;18.34;97.87
9521;BME280;4798;41.574;23.734;2023-09-19T00:03:26;95701.25;;;18.30;98.46
9521;BME280;4798;41.574;23.734;2023-09-19T00:05:58;95639.03;;;17.66;100.00
9521;BME280;4798;41.574;23.734;2023-09-19T00:08:27;95705.06;;;18.07;100.00
9521;BME280;4798;41.574;23.734;2023-09-19T00:10:55;95657.50;;;17.68;100.00
9521;BME280;4798;41.574;23.734;2023-09-19T00:13:28;95699.22;;;18.05;100.00
9521;BME280;4798;41.574;23.734;2023-09-19T00:15:59;95693.44;;;18.11;100.00
9521;BME280;4798;41.574;23.734;2023-09-19T00:18:28;95702.88;;;18.09;100.00
9521;BME280;4798;41.574;23.734;2023-09-19T00:20:59;95697.94;;;18.02;100.00
9521;BME280;4798;41.574;23.734;2023-09-19T00:23:27;95701.81;;;17.65;100.00
9521;BME280;4798;41.574;23.734;2023-09-19T00:25:58;95642.13;;;17.38;100.00
9521;BME280;4798;41.574;23.734;2023-09-19T00:28:27;95678.97;;;17.68;100.00
9521;BME280;4798;41.574;23.734;2023-09-19T00:30:58;95706.97;;;17.84;100.00
9521;BME280;4798;41.574;23.734;2023-09-19T00:33:29;95708.31;;;17.95;100.00
9521;BME280;4798;41.574;23.734;2023-09-19T00:35:57;95706.28;;;17.78;100.00
9521;BME280;4798;41.574;23.734;2023-09-19T00:38:26;95703.78;;;17.24;100.00
9521;BME280;4798;41.574;23.734;2023-09-19T00:40:55;95699.97;;;17.52;100.00
9521;BME280;4798;41.574;23.734;2023-09-19T00:43:27;95704.53;;;17.74;100.00
9521;BME280;4798;41.574;23.734;2023-09-19T00:45:56;95700.69;;;17.66;100.00
9521;BME280;4798;41.574;23.734;2023-09-19T00:48:29;95700.94;;;17.78;100.00
9521;BME280;4798;41.574;23.734;2023-09-19T00:51:02;95696.97;;;17.76;100.00
9521;BME280;4798;41.574;23.734;2023-09-19T00:53:32;95695.31;;;17.89;100.00
9521;BME280;4798;41.574;23.734;2023-09-19T00:56:02;95695.56;;;17.56;100.00
9521;BME280;4798;41.574;23.734;2023-09-19T00:58:32;95687.84;;;17.55;100.00
9521;BME280;4798;41.574;23.734;2023-09-19T01:01:02;95696.06;;;17.58;100.00
9521;BME280;4798;41.574;23.734;2023-09-19T01:03:36;95695.66;;;17.65;100.00
9521;BME280;4798;41.574;23.734;2023-09-19T01:06:05;95689.63;;;17.46;100.00
9521;BME280;4798;41.574;23.734;2023-09-19T01:08:34;95699.78;;;16.86;100.00
9521;BME280;4798;41.574;23.734;2023-09-19T01:11:10;95693.69;;;16.39;100.00
9521;BME280;4798;41.574;23.734;2023-09-19T01:13:50;95623.63;;;16.10;100.00
9521;BME280;4798;41.574;23.734;2023-09-19T01:16:32;95701.94;;;16.70;100.00
9521;BME280;4798;41.574;23.734;2023-09-19T01:22:10;95694.19;;;17.09;100.00
9521;BME280;4798;41.574;23.734;2023-09-19T01:25:03;95666.72;;;16.49;100.00
9521;BME280;4798;41.574;23.734;2023-09-19T01:27:58;95697.94;;;16.27;100.00
9521;BME280;4798;41.574;23.734;2023-09-19T01:30:35;95703.44;;;16.49;100.00
9521;BME280;4798;41.574;23.734;2023-09-19T01:33:08;95703.44;;;16.76;100.00
9521;BME280;4798;41.574;23.734;2023-09-19T01:35:38;95688.25;;;16.99;100.00
9521;BME280;4798;41.574;23.734;2023-09-19T01:38:07;95675.78;;;16.67;100.00
9521;BME280;4798;41.574;23.734;2023-09-19T01:40:41;95691.84;;;16.94;100.00
9521;BME280;4798;41.574;23.734;2023-09-19T01:43:17;95692.34;;;16.69;100.00
9521;BME280;4798;41.574;23.734;2023-09-19T01:45:55;95686.09;;;16.74;100.00
9521;BME280;4798;41.574;23.734;2023-09-19T01:48:35;95631.56;;;16.42;100.00
9521;BME280;4798;41.574;23.734;2023-09-19T01:51:08;95686.47;;;16.94;100.00
9521;BME280;4798;41.574;23.734;2023-09-19T01:53:44;95677.28;;;16.73;100.00
9521;BME280;4798;41.574;23.734;2023-09-19T01:56:23;95675.88;;;16.62;100.00
9521;BME280;4798;41.574;23.734;2023-09-19T01:58:56;95672.59;;;16.51;100.00
9521;BME280;4798;41.574;23.734;2023-09-19T02:01:28;95670.53;;;16.48;100.00
9521;BME280;4798;41.574;23.734;2023-09-19T02:03:58;95668.47;;;16.59;100.00
9521;BME280;4798;41.574;23.734;2023-09-19T02:06:26;95676.97;;;16.88;100.00
9521;BME280;4798;41.574;23.734;2023-09-19T02:08:55;95668.34;;;16.78;100.00
9521;BME280;4798;41.574;23.734;2023-09-19T02:11:24;95670.13;;;16.55;100.00
9521;BME280;4798;41.574;23.734;2023-09-19T02:13:53;95672.44;;;16.62;100.00
9521;BME280;4798;41.574;23.734;2023-09-19T02:16:22;95669.50;;;16.44;100.00
9521;BME280;4798;41.574;23.734;2023-09-19T02:18:51;95677.88;;;16.57;100.00
9521;BME280;4798;41.574;23.734;2023-09-19T02:21:20;95673.13;;;16.54;100.00
9521;BME280;4798;41.574;23.734;2023-09-19T02:23:49;95661.31;;;16.55;100.00
9521;BME280;4798;41.574;23.734;2023-09-19T02:26:18;95673.50;;;16.61;100.00
9521;BME280;4798;41.574;23.734;2023-09-19T02:28:47;95663.19;;;16.68;100.00
9521;BME280;4798;41.574;23.734;2023-09-19T02:31:16;95670.63;;;16.71;100.00
9521;BME280;4798;41.574;23.734;2023-09-19T02:33:44;95670.41;;;16.40;100.00
9521;BME280;4798;41.574;23.734;2023-09-19T02:36:14;95660.03;;;16.66;100.00
9521;BME280;4798;41.574;23.734;2023-09-19T02:38:44;95651.78;;;16.76;100.00
9521;BME280;4798;41.574;23.734;2023-09-19T02:41:13;95644.84;;;16.75;100.00
9521;BME280;4798;41.574;23.734;2023-09-19T02:43:41;95662.66;;;16.93;100.00
9521;BME280;4798;41.574;23.734;2023-09-19T02:46:10;95660.09;;;17.01;100.00
9521;BME280;4798;41.574;23.734;2023-09-19T02:48:40;95654.47;;;16.76;100.00
9521;BME280;4798;41.574;23.734;2023-09-19T02:51:08;95655.91;;;16.95;100.00
9521;BME280;4798;41.574;23.734;2023-09-19T02:53:39;95657.41;;;16.88;100.00
9521;BME280;4798;41.574;23.734;2023-09-19T02:56:08;95654.41;;;16.54;100.00
9521;BME280;4798;41.574;23.734;2023-09-19T02:58:39;95654.19;;;16.64;100.00
9521;BME280;4798;41.574;23.734;2023-09-19T03:01:08;95644.94;;;16.83;100.00
9521;BME280;4798;41.574;23.734;2023-09-19T03:03:38;95655.56;;;16.75;100.00
9521;BME280;4798;41.574;23.734;2023-09-19T03:06:08;95649.31;;;16.66;100.00
9521;BME280;4798;41.574;23.734;2023-09-19T03:08:37;95655.84;;;16.73;100.00
9521;BME280;4798;41.574;23.734;2023-09-19T03:11:09;95652.00;;;16.79;100.00
9521;BME280;4798;41.574;23.734;2023-09-19T03:13:39;95650.59;;;16.68;100.00
9521;BME280;4798;41.574;23.734;2023-09-19T03:16:09;95605.00;;;16.46;100.00
9521;BME280;4798;41.574;23.734;2023-09-19T03:18:38;95651.50;;;16.36;100.00
9521;BME280;4798;41.574;23.734;2023-09-19T03:21:06;95656.03;;;16.09;100.00
9521;BME280;4798;41.574;23.734;2023-09-19T03:23:35;95645.63;;;15.43;100.00
9521;BME280;4798;41.574;23.734;2023-09-19T03:26:05;95649.69;;;15.21;100.00
9521;BME280;4798;41.574;23.734;2023-09-19T03:28:35;95660.88;;;14.86;100.00
9521;BME280;4798;41.574;23.734;2023-09-19T03:31:04;95662.66;;;14.72;100.00
9521;BME280;4798;41.574;23.734;2023-09-19T03:33:33;95663.41;;;14.54;100.00
9521;BME280;4798;41.574;23.734;2023-09-19T03:36:02;95654.63;;;14.53;100.00
9521;BME280;4798;41.574;23.734;2023-09-19T03:38:33;95665.41;;;14.67;100.00
9521;BME280;4798;41.574;23.734;2023-09-19T03:41:02;95656.31;;;15.24;100.00
9521;BME280;4798;41.574;23.734;2023-09-19T03:43:31;95608.41;;;15.33;100.00
9521;BME280;4798;41.574;23.734;2023-09-19T03:46:02;95660.47;;;16.00;100.00
9521;BME280;4798;41.574;23.734;2023-09-19T03:48:32;95663.84;;;16.05;100.00
9521;BME280;4798;41.574;23.734;2023-09-19T03:51:01;95665.84;;;15.30;100.00
9521;BME280;4798;41.574;23.734;2023-09-19T03:53:29;95653.66;;;15.43;100.00
9521;BME280;4798;41.574;23.734;2023-09-19T03:55:58;95662.69;;;15.47;100.00
9521;BME280;4798;41.574;23.734;2023-09-19T03:58:26;95661.72;;;15.56;100.00
9521;BME280;4798;41.574;23.734;2023-09-19T04:00:55;95626.00;;;15.34;100.00
9521;BME280;4798;41.574;23.734;2023-09-19T04:03:26;95666.38;;;15.83;100.00
9521;BME280;4798;41.574;23.734;2023-09-19T04:06:02;95672.59;;;15.78;100.00
9521;BME280;4798;41.574;23.734;2023-09-19T04:08:31;95678.44;;;15.80;100.00
9521;BME280;4798;41.574;23.734;2023-09-19T04:10:59;95680.38;;;16.07;100.00
9521;BME280;4798;41.574;23.734;2023-09-19T04:13:28;95684.59;;;15.81;100.00
9521;BME280;4798;41.574;23.734;2023-09-19T04:15:57;95692.47;;;15.72;100.00
9521;BME280;4798;41.574;23.734;2023-09-19T04:18:26;95688.81;;;15.82;100.00
9521;BME280;4798;41.574;23.734;2023-09-19T04:20:58;95696.22;;;15.71;100.00
9521;BME280;4798;41.574;23.734;2023-09-19T04:23:26;95698.44;;;15.51;100.00
9521;BME280;4798;41.574;23.734;2023-09-19T04:25:55;95693.56;;;15.34;100.00
9521;BME280;4798;41.574;23.734;2023-09-19T04:28:24;95690.97;;;15.29;100.00
9521;BME280;4798;41.574;23.734;2023-09-19T04:30:54;95688.63;;;15.41;100.00
9521;BME280;4798;41.574;23.734;2023-09-19T04:33:23;95698.44;;;15.51;100.00
9521;BME280;4798;41.574;23.734;2023-09-19T04:35:53;95695.69;;;15.88;100.00
9521;BME280;4798;41.574;23.734;2023-09-19T04:38:25;95705.13;;;15.67;100.00
9521;BME280;4798;41.574;23.734;2023-09-19T04:40:57;95701.81;;;15.56;100.00
9521;BME280;4798;41.574;23.734;2023-09-19T04:43:26;95711.22;;;15.86;100.00
9521;BME280;4798;41.574;23.734;2023-09-19T04:45:55;95657.78;;;15.35;100.00
9521;BME280;4798;41.574;23.734;2023-09-19T04:48:24;95704.75;;;15.73;100.00
9521;BME280;4798;41.574;23.734;2023-09-19T04:50:53;95704.22;;;15.90;100.00
9521;BME280;4798;41.574;23.734;2023-09-19T04:53:23;95707.66;;;16.23;100.00
9521;BME280;4798;41.574;23.734;2023-09-19T04:55:51;95683.97;;;16.16;100.00
9521;BME280;4798;41.574;23.734;2023-09-19T04:58:22;95706.19;;;16.44;100.00
9521;BME280;4798;41.574;23.734;2023-09-19T05:00:51;95710.44;;;16.45;100.00
9521;BME280;4798;41.574;23.734;2023-09-19T05:03:19;95655.31;;;16.03;100.00
9521;BME280;4798;41.574;23.734;2023-09-19T05:05:49;95698.28;;;16.39;100.00
9521;BME280;4798;41.574;23.734;2023-09-19T05:08:19;95698.47;;;16.70;100.00
9521;BME280;4798;41.574;23.734;2023-09-19T05:10:49;95704.69;;;17.06;100.00
9521;BME280;4798;41.574;23.734;2023-09-19T05:13:17;95699.94;;;17.17;100.00
9521;BME280;4798;41.574;23.734;2023-09-19T05:15:46;95699.72;;;17.13;100.00
9521;BME280;4798;41.574;23.734;2023-09-19T05:18:14;95700.94;;;16.93;100.00
9521;BME280;4798;41.574;23.734;2023-09-19T05:20:43;95707.16;;;17.16;100.00
9521;BME280;4798;41.574;23.734;2023-09-19T05:23:11;95709.94;;;17.11;100.00
9521;BME280;4798;41.574;23.734;2023-09-19T05:25:41;95709.09;;;16.88;100.00
9521;BME280;4798;41.574;23.734;2023-09-19T05:28:10;95703.34;;;16.81;100.00
9521;BME280;4798;41.574;23.734;2023-09-19T05:30:42;95714.47;;;16.15;100.00
9521;BME280;4798;41.574;23.734;2023-09-19T05:33:14;95706.22;;;15.98;100.00
9521;BME280;4798;41.574;23.734;2023-09-19T05:35:45;95711.78;;;16.15;100.00
9521;BME280;4798;41.574;23.734;2023-09-19T05:38:14;95709.06;;;16.47;100.00
9521;BME280;4798;41.574;23.734;2023-09-19T05:40:47;95706.72;;;16.87;100.00
9521;BME280;4798;41.574;23.734;2023-09-19T05:43:16;95714.66;;;16.92;100.00
9521;BME280;4798;41.574;23.734;2023-09-19T05:45:45;95714.34;;;16.66;100.00
9521;BME280;4798;41.574;23.734;2023-09-19T05:48:14;95709.69;;;16.99;100.00
9521;BME280;4798;41.574;23.734;2023-09-19T05:50:44;95708.38;;;17.10;100.00
9521;BME280;4798;41.574;23.734;2023-09-19T05:53:14;95707.59;;;18.03;100.00
9521;BME280;4798;41.574;23.734;2023-09-19T05:55:43;95702.81;;;18.53;94.96
9521;BME280;4798;41.574;23.734;2023-09-19T05:58:13;95704.47;;;18.71;93.66
9521;BME280;4798;41.574;23.734;2023-09-19T06:00:45;95705.97;;;18.94;91.60
9521;BME280;4798;41.574;23.734;2023-09-19T06:03:15;95700.81;;;19.24;88.13
9521;BME280;4798;41.574;23.734;2023-09-19T06:05:45;95686.22;;;18.99;87.87
9521;BME280;4798;41.574;23.734;2023-09-19T06:08:16;95696.78;;;18.95;88.24
9521;BME280;4798;41.574;23.734;2023-09-19T06:10:45;95700.19;;;18.70;89.66
9521;BME280;4798;41.574;23.734;2023-09-19T06:13:15;95697.25;;;18.97;88.22
9521;BME280;4798;41.574;23.734;2023-09-19T06:15:45;95694.66;;;19.32;87.55
9521;BME280;4798;41.574;23.734;2023-09-19T06:18:14;95649.09;;;19.95;84.57
9521;BME280;4798;41.574;23.734;2023-09-19T06:20:47;95680.47;;;20.84;80.59
9521;BME280;4798;41.574;23.734;2023-09-19T06:23:18;95687.25;;;20.90;78.15
9521;BME280;4798;41.574;23.734;2023-09-19T06:25:49;95683.81;;;21.39;74.53
9521;BME280;4798;41.574;23.734;2023-09-19T06:28:19;95678.53;;;21.64;72.55
9521;BME280;4798;41.574;23.734;2023-09-19T06:30:51;95682.66;;;21.82;71.56
9521;BME280;4798;41.574;23.734;2023-09-19T06:33:20;95681.13;;;22.13;70.24
9521;BME280;4798;41.574;23.734;2023-09-19T06:35:50;95677.00;;;22.40;69.31
9521;BME280;4798;41.574;23.734;2023-09-19T06:38:19;95674.59;;;22.14;69.72
9521;BME280;4798;41.574;23.734;2023-09-19T06:40:49;95681.22;;;22.62;68.61
9521;BME280;4798;41.574;23.734;2023-09-19T06:43:19;95680.56;;;23.01;65.48
9521;BME280;4798;41.574;23.734;2023-09-19T06:45:48;95676.59;;;23.47;65.32
9521;BME280;4798;41.574;23.734;2023-09-19T06:48:17;95672.31;;;23.46;62.25
9521;BME280;4798;41.574;23.734;2023-09-19T06:50:46;95669.03;;;23.28;62.77
9521;BME280;4798;41.574;23.734;2023-09-19T06:53:15;95660.88;;;23.92;63.16
9521;BME280;4798;41.574;23.734;2023-09-19T06:55:43;95656.84;;;24.30;61.09
9521;BME280;4798;41.574;23.734;2023-09-19T06:58:12;95648.63;;;24.11;60.02
9521;BME280;4798;41.574;23.734;2023-09-19T07:00:42;95653.22;;;24.69;59.06
9521;BME280;4798;41.574;23.734;2023-09-19T07:03:13;95651.38;;;25.04;58.75
9521;BME280;4798;41.574;23.734;2023-09-19T07:05:43;95657.41;;;24.35;58.03
9521;BME280;4798;41.574;23.734;2023-09-19T07:08:11;95651.47;;;23.74;59.76
9521;BME280;4798;41.574;23.734;2023-09-19T07:10:41;95649.63;;;23.78;60.72
9521;BME280;4798;41.574;23.734;2023-09-19T07:13:16;95649.97;;;24.05;60.69
9521;BME280;4798;41.574;23.734;2023-09-19T07:15:46;95650.97;;;24.12;61.37
9521;BME280;4798;41.574;23.734;2023-09-19T07:18:15;95657.38;;;24.20;61.77
9521;BME280;4798;41.574;23.734;2023-09-19T07:20:45;95645.09;;;24.69;59.86
9521;BME280;4798;41.574;23.734;2023-09-19T07:23:17;95631.19;;;24.86;57.32
9521;BME280;4798;41.574;23.734;2023-09-19T07:25:45;95647.66;;;25.12;57.11
9521;BME280;4798;41.574;23.734;2023-09-19T07:28:16;95633.41;;;25.69;57.43
9521;BME280;4798;41.574;23.734;2023-09-19T07:30:46;95647.56;;;25.44;56.29
9521;BME280;4798;41.574;23.734;2023-09-19T07:33:14;95643.94;;;24.70;56.65
9521;BME280;4798;41.574;23.734;2023-09-19T07:35:45;95644.34;;;25.38;56.38
9521;BME280;4798;41.574;23.734;2023-09-19T07:38:14;95641.84;;;25.64;55.35
9521;BME280;4798;41.574;23.734;2023-09-19T07:40:43;95641.72;;;26.37;54.27
9521;BME280;4798;41.574;23.734;2023-09-19T07:43:12;95628.66;;;26.24;53.01
9521;BME280;4798;41.574;23.734;2023-09-19T07:45:41;95631.25;;;26.85;52.60
9521;BME280;4798;41.574;23.734;2023-09-19T07:48:11;95613.22;;;27.55;53.31
9521;BME280;4798;41.574;23.734;2023-09-19T07:50:42;95628.59;;;27.41;51.46
9521;BME280;4798;41.574;23.734;2023-09-19T07:53:12;95620.06;;;27.72;50.23
9521;BME280;4798;41.574;23.734;2023-09-19T07:55:43;95615.03;;;26.92;50.87
9521;BME280;4798;41.574;23.734;2023-09-19T07:58:15;95597.66;;;26.74;50.40
9521;BME280;4798;41.574;23.734;2023-09-19T08:00:44;95607.72;;;26.96;49.23
9521;BME280;4798;41.574;23.734;2023-09-19T08:03:14;95608.47;;;27.49;48.88
9521;BME280;4798;41.574;23.734;2023-09-19T08:05:44;95603.81;;;28.56;48.65
9521;BME280;4798;41.574;23.734;2023-09-19T08:08:13;95606.91;;;28.14;48.21
9521;BME280;4798;41.574;23.734;2023-09-19T08:10:42;95602.63;;;28.57;47.19
9521;BME280;4798;41.574;23.734;2023-09-19T08:13:16;95595.78;;;28.70;47.79
9521;BME280;4798;41.574;23.734;2023-09-19T08:15:45;95583.66;;;28.68;46.38
9521;BME280;4798;41.574;23.734;2023-09-19T08:18:16;95602.94;;;28.92;46.12
9521;BME280;4798;41.574;23.734;2023-09-19T08:20:49;95596.00;;;29.06;44.52
9521;BME280;4798;41.574;23.734;2023-09-19T08:23:18;95594.13;;;28.62;45.09
9521;BME280;4798;41.574;23.734;2023-09-19T08:25:48;95591.91;;;28.71;46.44
9521;BME280;4798;41.574;23.734;2023-09-19T08:28:16;95548.09;;;29.12;44.64
9521;BME280;4798;41.574;23.734;2023-09-19T08:30:46;95586.72;;;29.14;45.32
9521;BME280;4798;41.574;23.734;2023-09-19T08:33:16;95580.44;;;28.55;46.00
9521;BME280;4798;41.574;23.734;2023-09-19T08:35:44;95576.84;;;28.91;44.39
9521;BME280;4798;41.574;23.734;2023-09-19T08:38:12;95577.78;;;29.20;44.23
9521;BME280;4798;41.574;23.734;2023-09-19T08:40:41;95568.50;;;29.35;44.07
9521;BME280;4798;41.574;23.734;2023-09-19T08:43:10;95572.44;;;29.45;44.09
9521;BME280;4798;41.574;23.734;2023-09-19T08:45:39;95577.22;;;29.66;42.25
9521;BME280;4798;41.574;23.734;2023-09-19T08:48:22;95570.91;;;29.47;42.36
9521;BME280;4798;41.574;23.734;2023-09-19T08:50:55;95570.31;;;30.03;43.08
9521;BME280;4798;41.574;23.734;2023-09-19T08:53:36;95517.38;;;29.32;42.76
9521;BME280;4798;41.574;23.734;2023-09-19T08:56:09;95565.84;;;29.49;42.18
9521;BME280;4798;41.574;23.734;2023-09-19T08:58:44;95554.78;;;30.39;41.04
9521;BME280;4798;41.574;23.734;2023-09-19T09:01:15;95555.53;;;31.14;39.78
9521;BME280;4798;41.574;23.734;2023-09-19T09:03:51;95489.38;;;31.22;39.35
9521;BME280;4798;41.574;23.734;2023-09-19T09:06:21;95538.63;;;31.36;38.72
9521;BME280;4798;41.574;23.734;2023-09-19T09:08:50;95543.69;;;31.41;39.74
9521;BME280;4798;41.574;23.734;2023-09-19T09:11:19;95529.75;;;31.01;38.51
9521;BME280;4798;41.574;23.734;2023-09-19T09:13:50;95535.53;;;31.24;38.67
9521;BME280;4798;41.574;23.734;2023-09-19T09:16:19;95491.69;;;31.27;38.45
9521;BME280;4798;41.574;23.734;2023-09-19T09:18:50;95521.28;;;31.71;39.52
9521;BME280;4798;41.574;23.734;2023-09-19T09:21:22;95520.22;;;31.40;39.25
9521;BME280;4798;41.574;23.734;2023-09-19T09:23:50;95526.00;;;31.60;38.85
9521;BME280;4798;41.574;23.734;2023-09-19T09:26:40;95515.31;;;32.45;36.78
9521;BME280;4798;41.574;23.734;2023-09-19T09:29:10;95505.34;;;32.14;36.22
9521;BME280;4798;41.574;23.734;2023-09-19T09:31:40;95507.47;;;32.44;35.76
9521;BME280;4798;41.574;23.734;2023-09-19T09:34:11;95501.13;;;32.95;37.31
9521;BME280;4798;41.574;23.734;2023-09-19T09:36:41;95498.09;;;33.57;35.58
9521;BME280;4798;41.574;23.734;2023-09-19T09:39:10;95491.84;;;33.53;35.14
9521;BME280;4798;41.574;23.734;2023-09-19T09:41:52;95499.09;;;32.65;34.79
9521;BME280;4798;41.574;23.734;2023-09-19T09:44:20;95493.13;;;32.26;36.11
9521;BME280;4798;41.574;23.734;2023-09-19T09:46:49;95438.41;;;32.08;34.91
9521;BME280;4798;41.574;23.734;2023-09-19T09:49:36;95485.56;;;32.40;35.40
9521;BME280;4798;41.574;23.734;2023-09-19T09:52:07;95484.50;;;32.27;35.65
9521;BME280;4798;41.574;23.734;2023-09-19T09:54:59;95480.50;;;30.69;36.94
9521;BME280;4798;41.574;23.734;2023-09-19T09:57:28;95479.31;;;30.80;37.48
9521;BME280;4798;41.574;23.734;2023-09-19T09:59:58;95443.34;;;30.75;36.71
9521;BME280;4798;41.574;23.734;2023-09-19T10:02:43;95470.31;;;31.81;36.88
9521;BME280;4798;41.574;23.734;2023-09-19T10:05:16;95482.53;;;31.66;36.71
9521;BME280;4798;41.574;23.734;2023-09-19T10:08:10;95483.69;;;30.36;37.63
9521;BME280;4798;41.574;23.734;2023-09-19T10:10:40;95482.44;;;30.75;37.37
9521;BME280;4798;41.574;23.734;2023-09-19T10:13:22;95480.56;;;30.41;38.99
9521;BME280;4798;41.574;23.734;2023-09-19T10:15:56;95375.31;;;29.01;41.72
9521;BME280;4798;41.574;23.734;2023-09-19T10:18:27;95473.13;;;30.31;39.55
9521;BME280;4798;41.574;23.734;2023-09-19T10:20:58;95475.03;;;30.34;38.97
9521;BME280;4798;41.574;23.734;2023-09-19T10:23:27;95428.19;;;30.39;40.25
9521;BME280;4798;41.574;23.734;2023-09-19T10:25:57;95473.06;;;30.80;39.14
9521;BME280;4798;41.574;23.734;2023-09-19T10:28:30;95477.44;;;30.46;38.25
9521;BME280;4798;41.574;23.734;2023-09-19T10:31:00;95464.44;;;30.99;37.36
9521;BME280;4798;41.574;23.734;2023-09-19T10:33:35;95463.13;;;31.28;38.22
9521;BME280;4798;41.574;23.734;2023-09-19T10:36:06;95452.84;;;31.57;38.82
9521;BME280;4798;41.574;23.734;2023-09-19T10:38:39;95454.03;;;31.53;39.33
9521;BME280;4798;41.574;23.734;2023-09-19T10:41:14;95446.09;;;30.71;41.01
9521;BME280;4798;41.574;23.734;2023-09-19T10:43:45;95448.69;;;31.17;39.91
9521;BME280;4798;41.574;23.734;2023-09-19T10:46:16;95437.91;;;31.65;38.69
9521;BME280;4798;41.574;23.734;2023-09-19T10:48:45;95435.38;;;31.26;38.70
9521;BME280;4798;41.574;23.734;2023-09-19T10:51:20;95381.41;;;31.82;37.59
9521;BME280;4798;41.574;23.734;2023-09-19T10:53:55;95425.88;;;32.07;37.74
9521;BME280;4798;41.574;23.734;2023-09-19T10:56:30;95423.47;;;31.58;39.59
9521;BME280;4798;41.574;23.734;2023-09-19T10:59:08;95414.31;;;31.78;39.58
9521;BME280;4798;41.574;23.734;2023-09-19T11:01:42;95411.94;;;31.15;40.14
9521;BME280;4798;41.574;23.734;2023-09-19T11:04:22;95414.44;;;30.67;40.78
9521;BME280;4798;41.574;23.734;2023-09-19T11:07:06;95411.00;;;30.45;40.28
9521;BME280;4798;41.574;23.734;2023-09-19T11:09:46;95407.75;;;30.82;39.66
9521;BME280;4798;41.574;23.734;2023-09-19T11:12:48;95403.28;;;31.23;40.44
9521;BME280;4798;41.574;23.734;2023-09-19T11:18:54;95398.00;;;31.64;41.24
9521;BME280;4798;41.574;23.734;2023-09-19T11:24:30;95389.31;;;32.21;38.76
9521;BME280;4798;41.574;23.734;2023-09-19T11:27:14;95384.50;;;31.87;37.01
9521;BME280;4798;41.574;23.734;2023-09-19T11:29:45;95334.19;;;32.08;38.48
9521;BME280;4798;41.574;23.734;2023-09-19T11:32:14;95369.81;;;32.52;38.60
9521;BME280;4798;41.574;23.734;2023-09-19T11:34:46;95371.00;;;32.85;36.39
9521;BME280;4798;41.574;23.734;2023-09-19T11:40:47;95353.03;;;33.68;34.78
9521;BME280;4798;41.574;23.734;2023-09-19T11:43:28;95361.78;;;32.31;36.25
9521;BME280;4798;41.574;23.734;2023-09-19T11:46:08;95354.00;;;32.26;37.54
9521;BME280;4798;41.574;23.734;2023-09-19T11:48:41;95350.19;;;32.13;37.50
9521;BME280;4798;41.574;23.734;2023-09-19T11:51:18;95346.06;;;31.47;38.68
9521;BME280;4798;41.574;23.734;2023-09-19T11:53:50;95351.78;;;31.01;40.38
9521;BME280;4798;41.574;23.734;2023-09-19T11:56:22;95338.50;;;30.99;40.26
9521;BME280;4798;41.574;23.734;2023-09-19T11:58:52;95339.34;;;30.75;40.54
9521;BME280;4798;41.574;23.734;2023-09-19T12:01:29;95340.53;;;30.74;40.41
9521;BME280;4798;41.574;23.734;2023-09-19T12:04:01;95336.34;;;30.41;41.54
9521;BME280;4798;41.574;23.734;2023-09-19T12:06:32;95184.22;;;29.71;41.54
9521;BME280;4798;41.574;23.734;2023-09-19T12:09:00;95337.09;;;30.56;40.43
9521;BME280;4798;41.574;23.734;2023-09-19T12:11:41;95335.56;;;30.34;42.12
9521;BME280;4798;41.574;23.734;2023-09-19T12:14:11;95329.34;;;30.40;41.50
9521;BME280;4798;41.574;23.734;2023-09-19T12:16:53;95319.19;;;30.37;41.49
9521;BME280;4798;41.574;23.734;2023-09-19T12:19:23;95318.06;;;30.10;40.52
9521;BME280;4798;41.574;23.734;2023-09-19T12:21:58;95241.16;;;29.97;39.88
9521;BME280;4798;41.574;23.734;2023-09-19T12:24:27;95311.81;;;31.10;40.00
9521;BME280;4798;41.574;23.734;2023-09-19T12:27:04;95311.16;;;30.89;41.21
9521;BME280;4798;41.574;23.734;2023-09-19T12:29:42;95308.28;;;31.68;40.32
9521;BME280;4798;41.574;23.734;2023-09-19T12:32:11;95304.13;;;32.35;39.43
9521;BME280;4798;41.574;23.734;2023-09-19T12:34:51;95309.78;;;33.18;38.63
9521;BME280;4798;41.574;23.734;2023-09-19T12:37:24;95305.47;;;33.44;36.78
9521;BME280;4798;41.574;23.734;2023-09-19T12:40:04;95303.72;;;33.00;37.81
9521;BME280;4798;41.574;23.734;2023-09-19T12:42:45;95274.56;;;32.49;37.24
9521;BME280;4798;41.574;23.734;2023-09-19T12:45:15;95293.88;;;33.60;37.07
9521;BME280;4798;41.574;23.734;2023-09-19T12:48:17;95290.41;;;33.52;36.26
9521;BME280;4798;41.574;23.734;2023-09-19T12:51:04;95290.53;;;34.38;35.97
9521;BME280;4798;41.574;23.734;2023-09-19T12:53:35;95290.31;;;34.06;36.43
9521;BME280;4798;41.574;23.734;2023-09-19T12:56:09;95281.63;;;34.50;37.40
9521;BME280;4798;41.574;23.734;2023-09-19T12:58:50;95285.25;;;35.02;35.22
9521;BME280;4798;41.574;23.734;2023-09-19T13:01:22;95280.19;;;34.81;36.30
9521;BME280;4798;41.574;23.734;2023-09-19T13:04:13;95277.72;;;34.08;37.62
9521;BME280;4798;41.574;23.734;2023-09-19T13:06:46;95225.66;;;33.28;37.07
9521;BME280;4798;41.574;23.734;2023-09-19T13:09:17;95269.00;;;34.33;36.18
9521;BME280;4798;41.574;23.734;2023-09-19T13:11:48;95214.53;;;33.81;38.04
9521;BME280;4798;41.574;23.734;2023-09-19T13:14:21;95264.34;;;34.30;37.72
9521;BME280;4798;41.574;23.734;2023-09-19T13:17:01;95249.72;;;34.53;36.79
9521;BME280;4798;41.574;23.734;2023-09-19T13:19:40;95254.88;;;34.11;38.39
9521;BME280;4798;41.574;23.734;2023-09-19T13:22:38;95245.28;;;33.96;37.79
9521;BME280;4798;41.574;23.734;2023-09-19T13:25:07;95222.13;;;33.51;38.68
9521;BME280;4798;41.574;23.734;2023-09-19T13:27:42;95255.91;;;33.98;37.53
9521;BME280;4798;41.574;23.734;2023-09-19T13:30:13;95238.47;;;34.04;36.69
9521;BME280;4798;41.574;23.734;2023-09-19T13:32:42;95254.69;;;33.29;37.01
9521;BME280;4798;41.574;23.734;2023-09-19T13:35:28;95241.63;;;33.10;37.95
9521;BME280;4798;41.574;23.734;2023-09-19T13:37:56;95235.50;;;33.49;37.64
9521;BME280;4798;41.574;23.734;2023-09-19T13:40:25;95234.41;;;33.69;36.76
9521;BME280;4798;41.574;23.734;2023-09-19T13:42:57;95231.13;;;33.28;37.10
9521;BME280;4798;41.574;23.734;2023-09-19T13:45:27;95238.41;;;33.15;37.14